Time;durP1;ratioP1;P1;durP2;ratioP2;P2;SDS_P1;SDS_P2;PMS_P1;PMS_P2;Temp;Humidity;BMP_temperature;BMP_pressure;BME280_temperature;BME280_humidity;BME280_pressure;Samples;Min_cycle;Max_cycle;Signal;HPM_P1;HPM_P2
2022/11/15 00:01:00;;;;;;;42.60;20.07;;;;;;;;;;5007892;28;20210;-72
2022/11/15 00:03:26;;;;;;;41.47;20.40;;;;;;;;;;5011199;28;20663;-72
2022/11/15 00:05:51;;;;;;;41.40;20.23;;;;;;;;;;5012758;28;20199;-72
2022/11/15 00:08:16;;;;;;;39.03;20.27;;;;;;;;;;5008129;28;20187;-72
2022/11/15 00:10:42;;;;;;;49.33;21.20;;;;;;;;;;5011730;28;20203;-72
2022/11/15 00:13:08;;;;;;;45.70;21.30;;;;;;;;;;5011771;28;20171;-72
2022/11/15 00:15:37;;;;;;;42.20;21.80;;;;;;;;;;5011948;28;20672;-72
2022/11/15 00:18:03;;;;;;;45.77;22.43;;;;;;;;;;5008221;28;20242;-72
2022/11/15 00:20:29;;;;;;;46.03;20.77;;;;;;;;;;5007704;28;20649;-71
2022/11/15 00:22:54;;;;;;;44.50;23.47;;;;;;;;;;5009847;28;20206;-72
2022/11/15 00:25:19;;;;;;;49.90;21.50;;;;;;;;;;5011349;28;20602;-72
2022/11/15 00:27:45;;;;;;;50.43;23.13;;;;;;;;;;5005786;28;20249;-72
2022/11/15 00:30:10;;;;;;;51.93;23.37;;;;;;;;;;5011620;28;20550;-71
2022/11/15 00:32:35;;;;;;;53.87;23.40;;;;;;;;;;5010205;28;20181;-72
2022/11/15 00:35:01;;;;;;;51.43;22.33;;;;;;;;;;5006526;28;20197;-72
2022/11/15 00:37:26;;;;;;;46.63;21.87;;;;;;;;;;5010544;28;20648;-72
2022/11/15 00:39:51;;;;;;;47.27;22.40;;;;;;;;;;5011628;28;20181;-72
2022/11/15 00:42:16;;;;;;;49.13;23.30;;;;;;;;;;5010852;28;20194;-73
2022/11/15 00:44:41;;;;;;;50.03;22.53;;;;;;;;;;5005506;28;20289;-72
2022/11/15 00:47:06;;;;;;;55.37;24.40;;;;;;;;;;5007725;28;20187;-72
2022/11/15 00:49:32;;;;;;;48.40;23.80;;;;;;;;;;5011760;28;20607;-72
2022/11/15 00:51:57;;;;;;;50.43;22.87;;;;;;;;;;5010700;28;20242;-72
2022/11/15 00:54:22;;;;;;;57.50;24.30;;;;;;;;;;5011567;28;20202;-72
2022/11/15 00:56:47;;;;;;;55.60;23.70;;;;;;;;;;5011535;28;20638;-72
2022/11/15 00:59:12;;;;;;;49.23;21.90;;;;;;;;;;5011923;28;20194;-72
2022/11/15 01:01:38;;;;;;;49.87;22.73;;;;;;;;;;5009386;28;20175;-71
2022/11/15 01:04:03;;;;;;;52.40;23.30;;;;;;;;;;5008944;28;20190;-72
2022/11/15 01:06:28;;;;;;;51.33;23.20;;;;;;;;;;5011308;28;20206;-72
2022/11/15 01:08:53;;;;;;;56.70;24.13;;;;;;;;;;5010278;28;20183;-72
2022/11/15 01:11:18;;;;;;;46.60;23.27;;;;;;;;;;5010443;28;20245;-72
2022/11/15 01:13:43;;;;;;;52.43;23.50;;;;;;;;;;5011469;28;20179;-72
2022/11/15 01:16:13;;;;;;;50.23;22.47;;;;;;;;;;5010308;28;20195;-72
2022/11/15 01:18:38;;;;;;;55.53;24.40;;;;;;;;;;5007750;28;20614;-73
2022/11/15 01:21:10;;;;;;;52.23;24.47;;;;;;;;;;5011900;28;20179;-72
2022/11/15 01:23:35;;;;;;;44.87;23.73;;;;;;;;;;5011557;28;20179;-72
2022/11/15 01:26:01;;;;;;;55.77;28.53;;;;;;;;;;5009118;28;20644;-72
2022/11/15 01:28:29;;;;;;;53.73;25.13;;;;;;;;;;5009069;28;20276;-72
2022/11/15 01:30:57;;;;;;;51.67;26.03;;;;;;;;;;5010329;28;20544;-72
2022/11/15 01:33:22;;;;;;;55.13;25.00;;;;;;;;;;5011222;28;20186;-72
2022/11/15 01:35:47;;;;;;;52.00;24.63;;;;;;;;;;5004915;28;20577;-72
2022/11/15 01:38:12;;;;;;;54.13;25.53;;;;;;;;;;5009007;28;20179;-72
2022/11/15 01:40:37;;;;;;;54.37;25.53;;;;;;;;;;5009549;28;20253;-72
2022/11/15 01:43:38;;;;;;;61.27;27.60;;;;;;;;;;5010936;28;20652;-72
2022/11/15 01:46:21;;;;;;;59.33;26.40;;;;;;;;;;4934036;29;20679;-72
2022/11/15 01:48:47;;;;;;;53.70;26.30;;;;;;;;;;5005280;28;20330;-72
2022/11/15 01:51:13;;;;;;;51.20;24.47;;;;;;;;;;5013419;28;20742;-72
2022/11/15 01:53:40;;;;;;;51.23;26.27;;;;;;;;;;5011724;28;20645;-72
2022/11/15 01:56:07;;;;;;;55.83;25.10;;;;;;;;;;5011685;28;20206;-72
2022/11/15 01:58:34;;;;;;;49.03;24.53;;;;;;;;;;5012642;28;20175;-72
2022/11/15 02:00:59;;;;;;;49.00;24.63;;;;;;;;;;5015621;28;20218;-72
2022/11/15 02:03:31;;;;;;;55.73;25.10;;;;;;;;;;5011747;28;20645;-72
2022/11/15 02:05:57;;;;;;;49.53;25.23;;;;;;;;;;5014522;28;20203;-72
2022/11/15 02:08:22;;;;;;;49.40;26.27;;;;;;;;;;5012730;28;20672;-72
2022/11/15 02:10:47;;;;;;;51.27;24.73;;;;;;;;;;5012578;28;20217;-72
2022/11/15 02:13:14;;;;;;;50.30;24.60;;;;;;;;;;5010949;28;20228;-72
2022/11/15 02:15:44;;;;;;;45.03;22.87;;;;;;;;;;5014486;28;21023;-72
2022/11/15 02:18:24;;;;;;;47.53;25.60;;;;;;;;;;5015688;28;20190;-72
2022/11/15 02:20:55;;;;;;;47.27;24.63;;;;;;;;;;5013463;28;20236;-72
2022/11/15 02:23:39;;;;;;;46.00;24.37;;;;;;;;;;5014208;28;20210;-72
2022/11/15 02:26:07;;;;;;;51.40;24.93;;;;;;;;;;5014224;28;20277;-72
2022/11/15 02:28:51;;;;;;;50.67;24.50;;;;;;;;;;5013806;28;20179;-72
2022/11/15 02:31:25;;;;;;;48.93;24.47;;;;;;;;;;5000382;28;20238;-72
2022/11/15 02:33:54;;;;;;;44.40;23.63;;;;;;;;;;5007125;28;20228;-72
2022/11/15 02:36:38;;;;;;;48.60;22.90;;;;;;;;;;5011733;28;20540;-72
2022/11/15 02:39:10;;;;;;;45.57;25.37;;;;;;;;;;5013872;28;20183;-73
2022/11/15 02:41:42;;;;;;;38.80;21.87;;;;;;;;;;5013076;28;20664;-71
2022/11/15 02:44:11;;;;;;;44.30;22.47;;;;;;;;;;5012779;28;20215;-72
2022/11/15 02:49:20;;;;;;;46.80;24.23;;;;;;;;;;5013834;28;20194;-72
2022/11/15 02:51:47;;;;;;;44.87;22.53;;;;;;;;;;5011448;28;20202;-72
2022/11/15 02:54:15;;;;;;;39.73;22.47;;;;;;;;;;5013026;28;20199;-71
2022/11/15 02:56:41;;;;;;;45.40;24.40;;;;;;;;;;5013739;28;20175;-72
2022/11/15 02:59:06;;;;;;;39.30;21.90;;;;;;;;;;5012596;28;20186;-72
2022/11/15 03:01:42;;;;;;;43.13;24.53;;;;;;;;;;5010583;28;21549;-72
2022/11/15 03:04:16;;;;;;;48.13;24.33;;;;;;;;;;5008426;28;20198;-72
2022/11/15 03:06:47;;;;;;;39.57;21.13;;;;;;;;;;5013666;28;20175;-72
2022/11/15 03:09:27;;;;;;;43.17;22.80;;;;;;;;;;5013574;28;20209;-71
2022/11/15 03:11:56;;;;;;;39.40;22.20;;;;;;;;;;5008777;28;20242;-71
2022/11/15 03:14:28;;;;;;;44.40;22.53;;;;;;;;;;5013021;28;20202;-72
2022/11/15 03:17:12;;;;;;;37.07;23.57;;;;;;;;;;5013292;28;20185;-71
2022/11/15 03:19:40;;;;;;;40.67;20.40;;;;;;;;;;5012968;28;20557;-72
2022/11/15 03:22:09;;;;;;;38.27;22.83;;;;;;;;;;5013243;28;20717;-72
2022/11/15 03:24:36;;;;;;;39.30;23.10;;;;;;;;;;5012775;28;20218;-72
2022/11/15 03:27:01;;;;;;;39.40;21.57;;;;;;;;;;5011465;28;20245;-72
2022/11/15 03:29:30;;;;;;;36.23;22.03;;;;;;;;;;5013053;28;20175;-71
2022/11/15 03:31:58;;;;;;;35.60;21.63;;;;;;;;;;5003874;28;20215;-72
2022/11/15 03:34:32;;;;;;;35.63;21.07;;;;;;;;;;5013035;28;20195;-72
2022/11/15 03:36:58;;;;;;;39.67;21.53;;;;;;;;;;5012812;28;20193;-71
2022/11/15 03:39:23;;;;;;;35.37;20.20;;;;;;;;;;5011836;28;20175;-71
2022/11/15 03:42:07;;;;;;;34.77;20.03;;;;;;;;;;5012071;28;20226;-71
2022/11/15 03:44:38;;;;;;;33.40;20.30;;;;;;;;;;5012641;28;20190;-71
2022/11/15 03:47:07;;;;;;;38.63;23.13;;;;;;;;;;5012723;28;20207;-71
2022/11/15 03:49:34;;;;;;;39.83;22.03;;;;;;;;;;5012024;28;20544;-71
2022/11/15 03:52:00;;;;;;;35.70;21.07;;;;;;;;;;5009394;28;20680;-71
2022/11/15 03:54:25;;;;;;;33.37;21.10;;;;;;;;;;5011488;28;20226;-71
2022/11/15 03:56:50;;;;;;;40.67;21.43;;;;;;;;;;5012536;28;20183;-72
2022/11/15 03:59:15;;;;;;;36.63;21.00;;;;;;;;;;5011249;28;20179;-71
2022/11/15 04:01:40;;;;;;;35.93;20.53;;;;;;;;;;5011413;28;20187;-71
2022/11/15 04:04:06;;;;;;;28.17;19.57;;;;;;;;;;5007773;28;20218;-72
2022/11/15 04:06:31;;;;;;;31.37;20.43;;;;;;;;;;5011971;28;20609;-71
2022/11/15 04:08:56;;;;;;;30.83;19.97;;;;;;;;;;5009469;28;20190;-72
2022/11/15 04:11:21;;;;;;;36.70;20.30;;;;;;;;;;5014713;28;20201;-72
2022/11/15 04:13:46;;;;;;;32.57;19.97;;;;;;;;;;5014056;28;20171;-71
2022/11/15 04:16:12;;;;;;;32.53;19.20;;;;;;;;;;5012060;28;20217;-72
2022/11/15 04:18:37;;;;;;;31.47;19.20;;;;;;;;;;5014388;28;20706;-72
2022/11/15 04:26:30;;;;;;;30.57;19.00;;;;;;;;;;5011324;28;20313;-72
2022/11/15 04:31:39;;;;;;;30.33;18.27;;;;;;;;;;5011518;28;20210;-72
2022/11/15 04:34:04;;;;;;;28.47;18.30;;;;;;;;;;5011665;28;20198;-72
2022/11/15 04:39:13;;;;;;;28.97;19.57;;;;;;;;;;5014375;28;20277;-72
2022/11/15 04:41:39;;;;;;;29.23;18.77;;;;;;;;;;5010036;28;20265;-72
2022/11/15 04:44:04;;;;;;;28.10;18.70;;;;;;;;;;5009830;28;20672;-72
2022/11/15 04:46:29;;;;;;;30.73;18.47;;;;;;;;;;5012312;28;20205;-72
2022/11/15 04:48:54;;;;;;;27.07;19.13;;;;;;;;;;5009909;28;20179;-72
2022/11/15 04:51:20;;;;;;;28.90;18.33;;;;;;;;;;5008446;28;20205;-72
2022/11/15 04:53:45;;;;;;;26.47;18.63;;;;;;;;;;5009132;28;20568;-72
2022/11/15 04:56:11;;;;;;;31.00;20.07;;;;;;;;;;5011756;28;20266;-72
2022/11/15 04:58:36;;;;;;;30.10;18.17;;;;;;;;;;5011229;28;20677;-71
2022/11/15 05:01:08;;;;;;;27.33;18.30;;;;;;;;;;5009459;28;20182;-72
2022/11/15 05:06:17;;;;;;;25.67;17.40;;;;;;;;;;5009748;28;20336;-72
2022/11/15 05:08:42;;;;;;;31.23;18.53;;;;;;;;;;5011087;28;20277;-72
2022/11/15 05:11:07;;;;;;;28.37;17.43;;;;;;;;;;5007700;28;20206;-72
2022/11/15 05:13:32;;;;;;;33.97;18.50;;;;;;;;;;5012504;28;20187;-72
2022/11/15 05:15:57;;;;;;;29.25;17.50;;;;;;;;;;5011028;28;20222;-72
2022/11/15 05:18:22;;;;;;;37.87;18.90;;;;;;;;;;5010589;28;20179;-72
2022/11/15 05:20:48;;;;;;;27.30;18.13;;;;;;;;;;5009202;28;20178;-73
2022/11/15 05:23:13;;;;;;;26.63;15.77;;;;;;;;;;5013759;28;20191;-73
2022/11/15 05:25:38;;;;;;;29.83;18.10;;;;;;;;;;5010934;28;20652;-72
2022/11/15 05:28:03;;;;;;;26.20;17.03;;;;;;;;;;5011230;28;20385;-73
2022/11/15 05:30:29;;;;;;;29.57;17.10;;;;;;;;;;5012218;28;20213;-73
2022/11/15 05:32:54;;;;;;;24.80;17.13;;;;;;;;;;5008283;28;20261;-73
2022/11/15 05:35:25;;;;;;;28.33;16.07;;;;;;;;;;5005800;28;20215;-73
2022/11/15 05:37:50;;;;;;;27.07;17.90;;;;;;;;;;5011122;28;20193;-73
2022/11/15 05:40:15;;;;;;;24.90;16.53;;;;;;;;;;5011009;28;20262;-72
2022/11/15 05:42:40;;;;;;;24.20;15.97;;;;;;;;;;5008927;28;20450;-72
2022/11/15 05:45:06;;;;;;;26.00;15.80;;;;;;;;;;5010128;28;20229;-73
2022/11/15 05:47:33;;;;;;;23.93;16.47;;;;;;;;;;5003242;28;20728;-73
2022/11/15 05:49:58;;;;;;;27.50;16.70;;;;;;;;;;5009291;28;20183;-73
2022/11/15 05:52:25;;;;;;;27.27;16.43;;;;;;;;;;5005047;28;20207;-74
2022/11/15 05:54:50;;;;;;;24.83;17.23;;;;;;;;;;5020220;28;20202;-74
2022/11/15 05:57:16;;;;;;;25.20;17.70;;;;;;;;;;5008983;28;20179;-73
2022/11/15 05:59:43;;;;;;;23.80;16.37;;;;;;;;;;5010871;28;20186;-72
2022/11/15 06:02:08;;;;;;;25.00;17.43;;;;;;;;;;5008535;28;20187;-73
2022/11/15 06:04:33;;;;;;;24.70;15.67;;;;;;;;;;5009062;28;20202;-73
2022/11/15 06:06:59;;;;;;;22.03;15.80;;;;;;;;;;5010604;28;20257;-73
2022/11/15 06:09:24;;;;;;;29.23;17.43;;;;;;;;;;5010888;28;20189;-72
2022/11/15 06:11:49;;;;;;;22.00;15.47;;;;;;;;;;5009801;28;20215;-72
2022/11/15 06:14:14;;;;;;;22.77;16.03;;;;;;;;;;5010606;28;20199;-72
2022/11/15 06:16:40;;;;;;;28.53;17.03;;;;;;;;;;5007066;28;20185;-73
2022/11/15 06:19:05;;;;;;;25.13;17.43;;;;;;;;;;5006643;28;21016;-74
2022/11/15 06:21:31;;;;;;;25.13;16.25;;;;;;;;;;5007207;28;20187;-72
2022/11/15 06:23:56;;;;;;;23.57;16.13;;;;;;;;;;5009164;28;20195;-72
2022/11/15 06:26:21;;;;;;;30.92;17.05;;;;;;;;;;5008025;28;20282;-73
2022/11/15 06:28:46;;;;;;;31.40;16.92;;;;;;;;;;5009051;28;20216;-72
2022/11/15 06:31:11;;;;;;;23.33;15.45;;;;;;;;;;5004865;28;20739;-72
2022/11/15 06:33:38;;;;;;;26.50;16.85;;;;;;;;;;5012743;28;20183;-72
2022/11/15 06:36:05;;;;;;;28.40;16.30;;;;;;;;;;5012102;28;20199;-72
2022/11/15 06:38:30;;;;;;;24.00;16.33;;;;;;;;;;5014343;28;20605;-72
2022/11/15 06:41:00;;;;;;;27.23;16.60;;;;;;;;;;5011519;28;20178;-72
2022/11/15 06:43:25;;;;;;;24.60;15.48;;;;;;;;;;5012219;28;20214;-72
2022/11/15 06:45:50;;;;;;;26.63;16.17;;;;;;;;;;5011547;28;20203;-72
2022/11/15 06:48:16;;;;;;;25.30;14.93;;;;;;;;;;5012135;28;20645;-72
2022/11/15 06:50:41;;;;;;;23.07;15.00;;;;;;;;;;5011533;28;20285;-72
2022/11/15 06:53:06;;;;;;;20.83;14.73;;;;;;;;;;5013422;28;20179;-72
2022/11/15 06:55:31;;;;;;;23.73;15.80;;;;;;;;;;5010642;28;20206;-72
2022/11/15 06:57:56;;;;;;;20.00;14.83;;;;;;;;;;5012757;28;20179;-72
2022/11/15 07:00:23;;;;;;;23.30;15.00;;;;;;;;;;5009117;28;20191;-73
2022/11/15 07:02:48;;;;;;;24.70;16.30;;;;;;;;;;5010095;28;20207;-72
2022/11/15 07:05:14;;;;;;;22.30;14.37;;;;;;;;;;5009037;28;20667;-73
2022/11/15 07:07:39;;;;;;;24.87;15.53;;;;;;;;;;5018342;28;20179;-73
2022/11/15 07:10:05;;;;;;;24.07;15.60;;;;;;;;;;5014362;28;20183;-73
2022/11/15 07:12:30;;;;;;;22.97;14.83;;;;;;;;;;5012628;28;20289;-73
2022/11/15 07:14:55;;;;;;;21.70;14.00;;;;;;;;;;5012211;28;20211;-73
2022/11/15 07:17:20;;;;;;;24.77;14.57;;;;;;;;;;5013222;28;20171;-73
2022/11/15 07:19:45;;;;;;;22.03;14.97;;;;;;;;;;5012834;28;20258;-74
2022/11/15 07:22:11;;;;;;;24.10;15.63;;;;;;;;;;5011341;28;20232;-74
2022/11/15 07:24:36;;;;;;;25.50;14.50;;;;;;;;;;5016236;28;20273;-73
2022/11/15 07:27:01;;;;;;;27.67;16.10;;;;;;;;;;5017458;28;20603;-73
2022/11/15 07:29:26;;;;;;;23.80;15.17;;;;;;;;;;5011623;28;20183;-73
2022/11/15 07:31:51;;;;;;;22.37;14.27;;;;;;;;;;5012366;28;20586;-73
2022/11/15 07:34:17;;;;;;;23.87;14.77;;;;;;;;;;5008603;28;20203;-73
2022/11/15 07:36:42;;;;;;;23.40;15.10;;;;;;;;;;5006432;28;20446;-73
2022/11/15 07:39:07;;;;;;;23.80;15.33;;;;;;;;;;5010130;28;20645;-73
2022/11/15 07:41:32;;;;;;;21.50;14.33;;;;;;;;;;5009552;28;20484;-73
2022/11/15 07:43:58;;;;;;;27.10;14.20;;;;;;;;;;5015954;28;20325;-73
2022/11/15 07:46:23;;;;;;;22.60;13.80;;;;;;;;;;5012876;28;20812;-73
2022/11/15 07:48:48;;;;;;;22.27;13.73;;;;;;;;;;5012789;28;20266;-73
2022/11/15 07:51:14;;;;;;;21.13;14.73;;;;;;;;;;5008433;28;20209;-73
2022/11/15 07:53:39;;;;;;;25.80;14.77;;;;;;;;;;5011340;28;20178;-72
2022/11/15 07:56:08;;;;;;;24.00;13.67;;;;;;;;;;5012464;28;20203;-73
2022/11/15 07:58:33;;;;;;;21.97;13.60;;;;;;;;;;5013707;28;20182;-72
2022/11/15 08:01:01;;;;;;;21.80;13.30;;;;;;;;;;5012413;28;20182;-73
2022/11/15 08:03:26;;;;;;;22.73;13.53;;;;;;;;;;5002091;28;20230;-73
2022/11/15 08:05:52;;;;;;;21.17;12.77;;;;;;;;;;5010075;28;20231;-73
2022/11/15 08:08:17;;;;;;;20.77;11.83;;;;;;;;;;5012013;28;20187;-73
2022/11/15 08:10:42;;;;;;;20.00;12.73;;;;;;;;;;5005748;28;20211;-73
2022/11/15 08:13:09;;;;;;;18.83;11.23;;;;;;;;;;5011630;28;20171;-72
2022/11/15 08:15:35;;;;;;;19.03;11.80;;;;;;;;;;5011512;28;20209;-72
2022/11/15 08:18:01;;;;;;;18.97;12.50;;;;;;;;;;5011620;28;20182;-72
2022/11/15 08:20:29;;;;;;;23.83;13.43;;;;;;;;;;4996312;28;20190;-72
2022/11/15 08:22:55;;;;;;;18.50;12.13;;;;;;;;;;5003756;28;20712;-73
2022/11/15 08:25:20;;;;;;;18.40;11.50;;;;;;;;;;5008176;28;20288;-72
2022/11/15 08:27:45;;;;;;;16.67;11.00;;;;;;;;;;5010970;28;20179;-72
2022/11/15 08:30:11;;;;;;;16.20;9.93;;;;;;;;;;5012000;28;20660;-73
2022/11/15 08:32:36;;;;;;;13.30;9.77;;;;;;;;;;5009822;28;20206;-73
2022/11/15 08:35:01;;;;;;;14.67;9.30;;;;;;;;;;5011588;28;20542;-72
2022/11/15 08:37:26;;;;;;;15.43;8.93;;;;;;;;;;5007524;28;20236;-72
2022/11/15 08:39:52;;;;;;;14.43;8.90;;;;;;;;;;5015374;28;20563;-72
2022/11/15 08:42:17;;;;;;;13.52;8.98;;;;;;;;;;5008642;28;20317;-72
2022/11/15 08:44:42;;;;;;;13.10;8.50;;;;;;;;;;5007504;28;20226;-72
2022/11/15 08:47:07;;;;;;;15.60;7.95;;;;;;;;;;5009922;28;20187;-72
2022/11/15 08:49:32;;;;;;;14.00;8.33;;;;;;;;;;5008521;28;20675;-73
2022/11/15 08:51:57;;;;;;;11.20;6.87;;;;;;;;;;5009501;28;20246;-72
2022/11/15 08:54:23;;;;;;;10.77;7.30;;;;;;;;;;5009468;28;20756;-72
2022/11/15 08:56:48;;;;;;;10.07;6.77;;;;;;;;;;5008723;28;20810;-73
2022/11/15 08:59:13;;;;;;;9.07;6.80;;;;;;;;;;5011710;28;20173;-72
2022/11/15 09:01:38;;;;;;;13.70;7.80;;;;;;;;;;5004043;28;20282;-72
2022/11/15 09:04:03;;;;;;;11.98;7.13;;;;;;;;;;5007127;28;20187;-72
2022/11/15 09:06:29;;;;;;;14.63;6.95;;;;;;;;;;5008723;28;20187;-73
2022/11/15 09:08:54;;;;;;;13.48;7.55;;;;;;;;;;5010886;28;20191;-73
2022/11/15 09:11:21;;;;;;;10.85;7.50;;;;;;;;;;5011082;28;20205;-74
2022/11/15 09:13:47;;;;;;;13.70;7.45;;;;;;;;;;5009456;28;20230;-72
2022/11/15 09:16:15;;;;;;;14.90;7.90;;;;;;;;;;5008947;28;20219;-72
2022/11/15 09:18:40;;;;;;;13.13;7.03;;;;;;;;;;5008888;28;20210;-72
2022/11/15 09:21:05;;;;;;;10.05;6.82;;;;;;;;;;5011300;28;20741;-73
2022/11/15 09:23:30;;;;;;;10.00;6.10;;;;;;;;;;5008063;28;20653;-73
2022/11/15 09:26:00;;;;;;;8.93;6.35;;;;;;;;;;5017890;22;20231;-67
2022/11/15 09:28:25;;;;;;;13.30;6.05;;;;;;;;;;5006839;28;20250;-67
2022/11/15 09:30:50;;;;;;;9.35;5.30;;;;;;;;;;5007061;28;20258;-68
2022/11/15 09:33:15;;;;;;;11.07;6.22;;;;;;;;;;5012383;28;20187;-67
2022/11/15 09:35:41;;;;;;;10.65;6.15;;;;;;;;;;5010207;28;20215;-67
2022/11/15 09:38:06;;;;;;;10.82;5.93;;;;;;;;;;5009274;28;20185;-67
2022/11/15 09:40:32;;;;;;;11.38;6.43;;;;;;;;;;4993577;28;20232;-67
2022/11/15 09:43:12;;;;;;;10.40;5.93;;;;;;;;;;4991471;28;20217;-68
2022/11/15 09:45:40;;;;;;;6.80;5.32;;;;;;;;;;5009924;28;20210;-68
2022/11/15 09:48:06;;;;;;;8.88;5.15;;;;;;;;;;5008797;28;20233;-67
2022/11/15 09:50:37;;;;;;;9.60;5.20;;;;;;;;;;5010811;28;20178;-67
2022/11/15 09:53:02;;;;;;;7.72;5.07;;;;;;;;;;5004650;28;20167;-67
2022/11/15 09:55:33;;;;;;;8.07;4.63;;;;;;;;;;5012684;28;20201;-67
2022/11/15 09:58:07;;;;;;;5.63;4.10;;;;;;;;;;5007981;28;20217;-67
2022/11/15 10:00:34;;;;;;;5.00;4.35;;;;;;;;;;5008644;28;20851;-67
2022/11/15 10:03:09;;;;;;;5.57;4.18;;;;;;;;;;5007878;28;20217;-68
2022/11/15 10:05:38;;;;;;;5.95;4.25;;;;;;;;;;5009939;28;20228;-67
2022/11/15 10:08:04;;;;;;;5.93;4.18;;;;;;;;;;5011908;28;20238;-68
2022/11/15 10:10:36;;;;;;;4.93;3.78;;;;;;;;;;5001477;28;20171;-68
2022/11/15 10:13:02;;;;;;;5.82;3.85;;;;;;;;;;5014019;28;20187;-67
2022/11/15 10:15:27;;;;;;;5.50;3.63;;;;;;;;;;5012077;28;20205;-68
2022/11/15 10:17:52;;;;;;;7.60;4.53;;;;;;;;;;5012293;28;20194;-67
2022/11/15 10:20:20;;;;;;;3.87;3.33;;;;;;;;;;5013984;28;20179;-67
2022/11/15 10:22:50;;;;;;;8.63;4.10;;;;;;;;;;5013954;28;20412;-68
2022/11/15 10:25:18;;;;;;;5.05;3.38;;;;;;;;;;5014159;28;20245;-67
2022/11/15 10:27:45;;;;;;;4.68;3.70;;;;;;;;;;5009531;28;20263;-68
2022/11/15 10:30:13;;;;;;;5.40;3.80;;;;;;;;;;5012944;28;20233;-67
2022/11/15 10:32:39;;;;;;;4.85;3.10;;;;;;;;;;5009781;28;20203;-68
2022/11/15 10:35:22;;;;;;;7.78;3.70;;;;;;;;;;4994581;28;20206;-67
2022/11/15 10:37:47;;;;;;;4.75;2.95;;;;;;;;;;5012762;28;20171;-68
2022/11/15 10:40:18;;;;;;;4.43;3.15;;;;;;;;;;5016986;28;20554;-68
2022/11/15 10:42:44;;;;;;;4.82;2.40;;;;;;;;;;5007136;28;20192;-67
2022/11/15 10:45:30;;;;;;;4.10;2.40;;;;;;;;;;5009234;28;20202;-67
2022/11/15 10:48:15;;;;;;;5.45;2.00;;;;;;;;;;5009742;28;20189;-68
2022/11/15 10:50:40;;;;;;;3.65;2.05;;;;;;;;;;5006359;28;20185;-67
2022/11/15 10:53:15;;;;;;;4.10;2.50;;;;;;;;;;5004007;28;20187;-68
2022/11/15 10:55:40;;;;;;;7.90;3.63;;;;;;;;;;5012486;28;20462;-67
2022/11/15 10:58:19;;;;;;;3.83;2.13;;;;;;;;;;5013104;28;20649;-67
2022/11/15 11:00:45;;;;;;;3.40;2.17;;;;;;;;;;5004346;28;20632;-67
2022/11/15 11:03:33;;;;;;;3.35;2.00;;;;;;;;;;5011255;28;20212;-67
2022/11/15 11:06:05;;;;;;;4.63;2.30;;;;;;;;;;5009420;28;20203;-71
2022/11/15 11:08:31;;;;;;;3.65;2.05;;;;;;;;;;5013803;28;20184;-69
2022/11/15 11:10:58;;;;;;;5.70;2.05;;;;;;;;;;5009585;28;20637;-66
2022/11/15 11:13:24;;;;;;;3.05;1.63;;;;;;;;;;5016674;28;20212;-67
2022/11/15 11:15:55;;;;;;;5.93;2.15;;;;;;;;;;5007388;28;20257;-68
2022/11/15 11:18:27;;;;;;;4.90;1.90;;;;;;;;;;5008407;28;20186;-68
2022/11/15 11:20:58;;;;;;;2.28;1.50;;;;;;;;;;5010336;28;20559;-67
2022/11/15 11:23:46;;;;;;;2.92;1.55;;;;;;;;;;5013518;28;20262;-69
2022/11/15 11:26:26;;;;;;;3.72;1.73;;;;;;;;;;5013058;28;20202;-69
2022/11/15 11:28:57;;;;;;;4.90;1.35;;;;;;;;;;5010633;28;20191;-67
2022/11/15 11:31:34;;;;;;;5.05;1.55;;;;;;;;;;5011407;28;20260;-69
2022/11/15 11:34:11;;;;;;;6.47;1.33;;;;;;;;;;5012122;28;20177;-69
2022/11/15 11:36:42;;;;;;;2.92;1.60;;;;;;;;;;5012412;28;20191;-69
2022/11/15 11:39:20;;;;;;;3.80;1.38;;;;;;;;;;5011439;28;20187;-68
2022/11/15 11:42:01;;;;;;;3.13;1.35;;;;;;;;;;5013840;28;20182;-68
2022/11/15 11:44:35;;;;;;;2.55;1.30;;;;;;;;;;5013479;28;20187;-68
2022/11/15 11:47:00;;;;;;;4.72;1.55;;;;;;;;;;5006309;28;20272;-68
2022/11/15 11:49:28;;;;;;;4.03;1.52;;;;;;;;;;5014316;28;20270;-68
2022/11/15 11:52:02;;;;;;;5.55;1.63;;;;;;;;;;5009997;28;20202;-67
2022/11/15 11:54:35;;;;;;;4.10;2.53;;;;;;;;;;4989228;28;20183;-69
2022/11/15 11:57:02;;;;;;;4.00;1.27;;;;;;;;;;5008628;28;20183;-67
2022/11/15 11:59:46;;;;;;;1.20;0.60;;;;;;;;;;5010395;28;20258;-67
2022/11/15 12:02:16;;;;;;;3.00;0.90;;;;;;;;;;5010794;28;20617;-67
2022/11/15 12:04:44;;;;;;;4.22;1.13;;;;;;;;;;5008353;28;20203;-68
2022/11/15 12:07:13;;;;;;;3.72;1.10;;;;;;;;;;5010686;28;20246;-67
2022/11/15 12:10:01;;;;;;;3.63;0.93;;;;;;;;;;5011480;28;20175;-68
2022/11/15 12:12:29;;;;;;;2.55;1.00;;;;;;;;;;5002136;28;20262;-68
2022/11/15 12:14:56;;;;;;;2.92;0.93;;;;;;;;;;5010120;28;20294;-67
2022/11/15 12:17:23;;;;;;;3.03;0.95;;;;;;;;;;5009372;28;20175;-67
2022/11/15 12:19:49;;;;;;;3.10;1.10;;;;;;;;;;5004524;28;20213;-67
2022/11/15 12:22:22;;;;;;;7.72;0.63;;;;;;;;;;5006338;28;20216;-68
2022/11/15 12:24:54;;;;;;;2.20;1.00;;;;;;;;;;5009524;28;20685;-68
2022/11/15 12:27:27;;;;;;;3.50;1.40;;;;;;;;;;5005456;28;20214;-67
2022/11/15 12:29:58;;;;;;;4.13;1.20;;;;;;;;;;5013098;28;20179;-67
2022/11/15 12:32:32;;;;;;;2.40;0.90;;;;;;;;;;5005020;28;20224;-67
2022/11/15 12:34:58;;;;;;;1.40;0.85;;;;;;;;;;5002484;28;20202;-67
2022/11/15 12:37:33;;;;;;;3.33;0.80;;;;;;;;;;5006905;28;20266;-67
2022/11/15 12:40:04;;;;;;;4.18;1.30;;;;;;;;;;5007360;28;20185;-69
2022/11/15 12:42:30;;;;;;;2.70;0.80;;;;;;;;;;5010345;28;20186;-68
2022/11/15 12:44:59;;;;;;;2.33;1.27;;;;;;;;;;5007487;28;20206;-69
2022/11/15 12:47:25;;;;;;;5.13;1.08;;;;;;;;;;5003819;28;20518;-69
2022/11/15 12:49:50;;;;;;;4.00;1.20;;;;;;;;;;4991385;28;20278;-69
2022/11/15 12:52:16;;;;;;;5.57;0.95;;;;;;;;;;5009226;28;20285;-67
2022/11/15 12:54:41;;;;;;;2.03;0.93;;;;;;;;;;5005795;28;20179;-68
2022/11/15 12:57:06;;;;;;;3.50;0.80;;;;;;;;;;5003852;28;20229;-69
2022/11/15 12:59:50;;;;;;;2.93;1.17;;;;;;;;;;5010508;28;20451;-68
2022/11/15 13:02:22;;;;;;;5.95;0.90;;;;;;;;;;5009326;28;20428;-66
2022/11/15 13:04:48;;;;;;;4.80;1.88;;;;;;;;;;5006099;28;20233;-66
2022/11/15 13:07:36;;;;;;;1.58;0.70;;;;;;;;;;4992503;28;20230;-69
2022/11/15 13:10:21;;;;;;;1.70;0.68;;;;;;;;;;5008693;28;20194;-67
2022/11/15 13:12:46;;;;;;;2.58;1.02;;;;;;;;;;5001012;28;20599;-69
2022/11/15 13:15:11;;;;;;;5.30;0.88;;;;;;;;;;5009139;28;20199;-67
2022/11/15 13:17:46;;;;;;;5.17;1.20;;;;;;;;;;5010630;28;20179;-69
2022/11/15 13:20:15;;;;;;;3.00;0.82;;;;;;;;;;5005912;28;20604;-69
2022/11/15 13:22:54;;;;;;;4.85;1.00;;;;;;;;;;4992737;28;20182;-67
2022/11/15 13:25:25;;;;;;;4.60;1.00;;;;;;;;;;5011705;28;20268;-67
2022/11/15 13:27:50;;;;;;;4.80;1.23;;;;;;;;;;5011876;28;20650;-67
2022/11/15 13:30:19;;;;;;;4.55;0.90;;;;;;;;;;5008320;28;20182;-67
2022/11/15 13:32:44;;;;;;;6.18;1.20;;;;;;;;;;5009888;28;20202;-67
2022/11/15 13:35:09;;;;;;;3.80;1.05;;;;;;;;;;5007233;28;20664;-67
2022/11/15 13:37:35;;;;;;;9.60;2.50;;;;;;;;;;5006134;28;20193;-67
2022/11/15 13:40:15;;;;;;;4.38;0.80;;;;;;;;;;5014062;28;20214;-67
2022/11/15 13:42:40;;;;;;;3.47;1.30;;;;;;;;;;5013938;28;20183;-67
2022/11/15 13:45:12;;;;;;;1.10;0.68;;;;;;;;;;5021560;28;20206;-67
2022/11/15 13:47:37;;;;;;;2.97;1.00;;;;;;;;;;4993330;28;20603;-67
2022/11/15 13:50:03;;;;;;;5.80;1.90;;;;;;;;;;5013089;28;20191;-67
2022/11/15 13:52:31;;;;;;;3.92;1.13;;;;;;;;;;5013063;28;20187;-67
2022/11/15 13:55:08;;;;;;;5.18;0.93;;;;;;;;;;5011539;28;20704;-67
2022/11/15 13:57:48;;;;;;;1.73;1.00;;;;;;;;;;5015110;28;20179;-69
2022/11/15 14:00:40;;;;;;;4.10;0.90;;;;;;;;;;5009509;28;20335;-67
2022/11/15 14:03:07;;;;;;;4.28;1.10;;;;;;;;;;5005985;28;20187;-66
2022/11/15 14:05:32;;;;;;;4.50;0.95;;;;;;;;;;5011272;28;20272;-67
2022/11/15 14:08:00;;;;;;;1.20;0.70;;;;;;;;;;5016653;28;20301;-67
2022/11/15 14:10:28;;;;;;;2.35;0.98;;;;;;;;;;5009563;28;20189;-67
2022/11/15 14:12:53;;;;;;;1.20;0.73;;;;;;;;;;5012898;28;20799;-67
2022/11/15 14:15:25;;;;;;;2.88;0.93;;;;;;;;;;5009811;28;20285;-67
2022/11/15 14:17:51;;;;;;;2.58;1.10;;;;;;;;;;5009334;28;20179;-67
2022/11/15 14:20:25;;;;;;;4.35;0.80;;;;;;;;;;5010223;28;20655;-67
2022/11/15 14:22:51;;;;;;;2.65;0.70;;;;;;;;;;5007233;28;20191;-67
2022/11/15 14:25:21;;;;;;;4.38;0.90;;;;;;;;;;5012258;28;20214;-67
2022/11/15 14:28:05;;;;;;;3.42;0.80;;;;;;;;;;5014657;28;20653;-67
2022/11/15 14:30:30;;;;;;;5.65;1.40;;;;;;;;;;5008904;28;20545;-67
2022/11/15 14:32:55;;;;;;;3.35;1.00;;;;;;;;;;5014062;28;20234;-66
2022/11/15 14:35:22;;;;;;;4.97;1.50;;;;;;;;;;5015933;28;20198;-67
2022/11/15 14:37:47;;;;;;;6.03;2.03;;;;;;;;;;5009639;28;20578;-67
2022/11/15 14:40:14;;;;;;;4.30;2.00;;;;;;;;;;5012673;28;20175;-67
2022/11/15 14:42:39;;;;;;;1.95;1.25;;;;;;;;;;5011814;28;20199;-67
2022/11/15 14:45:11;;;;;;;2.10;1.23;;;;;;;;;;5013363;28;20199;-69
2022/11/15 14:47:36;;;;;;;2.05;1.40;;;;;;;;;;5013184;28;20182;-69